Time;durP1;ratioP1;P1;durP2;ratioP2;P2;SDS_P1;SDS_P2;PMS_P1;PMS_P2;Temp;Humidity;BMP_temperature;BMP_pressure;BME280_temperature;BME280_humidity;BME280_pressure;Samples;Min_cycle;Max_cycle;Signal;HPM_P1;HPM_P2
2022/03/20 00:02:00;;;;;;;36.67;17.60;;;-1.30;53.10;;;;;;5114182;28;20051;-79
2022/03/20 00:04:25;;;;;;;34.70;17.17;;;-1.30;53.00;;;;;;5095605;28;20023;-78
2022/03/20 00:06:51;;;;;;;33.95;17.58;;;-1.30;52.90;;;;;;5113584;28;20023;-78
2022/03/20 00:09:16;;;;;;;31.77;16.90;;;-1.20;52.80;;;;;;5095807;28;20050;-79
2022/03/20 00:11:42;;;;;;;38.38;17.77;;;-1.20;52.70;;;;;;5113964;28;20114;-78
2022/03/20 00:14:08;;;;;;;34.92;17.25;;;-1.20;52.60;;;;;;5113752;28;20399;-78
2022/03/20 00:16:33;;;;;;;33.55;18.63;;;-1.10;52.60;;;;;;5114019;28;20373;-78
2022/03/20 00:18:59;;;;;;;34.40;18.73;;;-1.10;52.50;;;;;;5113918;28;20016;-78
2022/03/20 00:21:24;;;;;;;32.95;17.30;;;-1.10;52.60;;;;;;5095742;28;20027;-78
2022/03/20 00:23:50;;;;;;;34.92;17.45;;;-1.20;52.60;;;;;;5113854;28;20030;-78
2022/03/20 00:26:18;;;;;;;36.25;17.80;;;-1.20;52.60;;;;;;5113528;28;20031;-78
2022/03/20 00:28:44;;;;;;;32.03;17.35;;;-1.20;53.20;;;;;;5113909;28;20098;-78
2022/03/20 00:31:10;;;;;;;34.58;16.73;;;-1.10;52.60;;;;;;5113658;28;20023;-78
2022/03/20 00:33:35;;;;;;;28.55;17.17;;;-1.10;52.40;;;;;;5095479;28;20116;-78
2022/03/20 00:36:01;;;;;;;34.00;17.85;;;-1.10;52.30;;;;;;5113493;28;20396;-78
2022/03/20 00:38:27;;;;;;;36.15;18.90;;;-1.10;52.20;;;;;;5095161;28;20019;-78
2022/03/20 00:40:52;;;;;;;30.88;15.93;;;-1.10;52.10;;;;;;5113719;28;20485;-78
2022/03/20 00:43:18;;;;;;;32.83;17.45;;;-1.10;52.00;;;;;;5095256;28;20028;-78
2022/03/20 00:45:44;;;;;;;32.97;18.23;;;-1.00;52.00;;;;;;5113328;28;20023;-78
2022/03/20 00:48:10;;;;;;;34.33;17.38;;;-1.10;51.90;;;;;;5113544;28;20034;-78
2022/03/20 00:50:36;;;;;;;37.53;18.35;;;-1.10;51.90;;;;;;5113581;28;20040;-79
2022/03/20 00:53:01;;;;;;;32.72;16.70;;;-1.10;51.90;;;;;;5095202;28;20027;-78
2022/03/20 00:55:29;;;;;;;35.83;18.45;;;-1.10;52.00;;;;;;5094874;28;20024;-79
2022/03/20 00:57:54;;;;;;;36.00;18.45;;;-1.10;51.90;;;;;;5113490;28;20019;-78
2022/03/20 01:00:20;;;;;;;32.33;18.02;;;-1.10;51.90;;;;;;5095062;28;20032;-78
2022/03/20 01:02:46;;;;;;;36.70;17.35;;;-1.10;51.90;;;;;;5094908;28;20114;-78
2022/03/20 01:05:13;;;;;;;32.97;18.45;;;-1.20;52.00;;;;;;5113229;28;20126;-78
2022/03/20 01:07:39;;;;;;;32.15;18.25;;;-1.20;52.20;;;;;;5094976;28;20161;-78
2022/03/20 01:10:06;;;;;;;30.70;17.70;;;-1.30;52.30;;;;;;5113289;28;20114;-78
2022/03/20 01:12:33;;;;;;;30.52;17.92;;;-1.30;52.40;;;;;;5095082;28;20108;-77
2022/03/20 01:14:59;;;;;;;34.58;18.98;;;-1.30;52.30;;;;;;5113522;28;20425;-78
2022/03/20 01:17:25;;;;;;;33.25;18.15;;;-1.30;52.20;;;;;;5115618;28;20424;-78
2022/03/20 01:19:51;;;;;;;39.13;17.75;;;-1.30;52.30;;;;;;5117555;28;20023;-78
2022/03/20 01:22:16;;;;;;;35.35;16.80;;;-1.30;52.20;;;;;;5117362;28;20027;-78
2022/03/20 01:24:42;;;;;;;38.92;20.85;;;-1.30;52.20;;;;;;5117390;28;20034;-78
2022/03/20 01:27:09;;;;;;;37.05;18.88;;;-1.20;52.10;;;;;;5098712;28;20016;-79
2022/03/20 01:29:35;;;;;;;30.63;17.63;;;-1.20;52.00;;;;;;5117119;28;20039;-79
2022/03/20 01:32:01;;;;;;;38.60;17.70;;;-1.10;52.00;;;;;;5098861;28;20019;-78
2022/03/20 01:34:26;;;;;;;41.17;19.27;;;-1.10;51.80;;;;;;5098706;28;20126;-78
2022/03/20 01:36:52;;;;;;;37.83;18.05;;;-1.00;51.50;;;;;;5098488;28;20035;-78
2022/03/20 01:39:18;;;;;;;35.95;17.90;;;-1.00;51.30;;;;;;5098624;28;20020;-78
2022/03/20 01:41:46;;;;;;;32.20;17.13;;;-1.00;51.10;;;;;;5098600;28;20020;-78
2022/03/20 01:44:11;;;;;;;40.08;18.10;;;-0.90;51.00;;;;;;5098704;28;20051;-78
2022/03/20 01:46:37;;;;;;;36.33;18.45;;;-0.90;50.90;;;;;;5098309;28;20082;-78
2022/03/20 01:49:03;;;;;;;32.85;18.83;;;-0.90;50.80;;;;;;5116713;28;20111;-78
2022/03/20 01:54:14;;;;;;;36.38;17.95;;;-0.90;50.70;;;;;;5117119;28;20111;-77
2022/03/20 01:56:48;;;;;;;30.88;17.77;;;-0.90;50.90;;;;;;5116472;28;20030;-77
2022/03/20 01:59:15;;;;;;;31.80;17.38;;;-0.90;51.00;;;;;;5098198;28;20431;-78
2022/03/20 02:01:41;;;;;;;34.75;18.10;;;-1.00;51.00;;;;;;5098179;28;20076;-78
2022/03/20 02:04:06;;;;;;;38.20;19.48;;;-1.00;51.20;;;;;;5116697;28;20019;-78
2022/03/20 02:06:32;;;;;;;33.80;18.23;;;-1.10;51.40;;;;;;5098059;28;20031;-78
2022/03/20 02:08:58;;;;;;;33.75;18.98;;;-1.10;51.40;;;;;;5116439;28;20038;-78
2022/03/20 02:11:27;;;;;;;36.90;19.52;;;-1.10;51.50;;;;;;5098242;28;20160;-78
2022/03/20 02:13:53;;;;;;;37.25;18.45;;;-1.20;51.60;;;;;;5098134;28;20026;-79
2022/03/20 02:16:19;;;;;;;39.13;19.35;;;-1.20;51.90;;;;;;5097898;28;20019;-79
2022/03/20 02:18:48;;;;;;;33.05;20.17;;;-1.20;52.00;;;;;;5116426;28;20465;-78
2022/03/20 02:21:15;;;;;;;32.58;18.60;;;-1.20;52.10;;;;;;5097984;28;20401;-78
2022/03/20 02:23:44;;;;;;;35.85;19.40;;;-1.20;52.20;;;;;;5116122;28;20045;-78
2022/03/20 02:26:10;;;;;;;33.85;19.23;;;-1.30;52.60;;;;;;5097556;28;20030;-79
2022/03/20 02:28:36;;;;;;;37.65;18.73;;;-1.40;52.70;;;;;;5096584;28;20024;-78
2022/03/20 02:31:02;;;;;;;35.22;19.63;;;-1.40;52.90;;;;;;5097798;28;20061;-79
2022/03/20 02:33:29;;;;;;;41.47;20.38;;;-1.40;53.10;;;;;;5115931;28;20501;-78
2022/03/20 02:35:55;;;;;;;34.30;18.77;;;-1.50;53.30;;;;;;5097515;28;20039;-78
2022/03/20 02:38:21;;;;;;;33.72;18.05;;;-1.50;53.60;;;;;;5097242;28;20086;-77
2022/03/20 02:40:54;;;;;;;36.83;20.27;;;-1.60;53.70;;;;;;5115810;28;20469;-77
2022/03/20 02:43:20;;;;;;;31.80;18.58;;;-1.60;53.90;;;;;;5097502;28;20020;-78
2022/03/20 02:45:45;;;;;;;36.47;18.20;;;-1.70;54.30;;;;;;5115749;28;20028;-78
2022/03/20 02:48:11;;;;;;;34.70;18.08;;;-1.70;54.50;;;;;;5096983;28;20024;-78
2022/03/20 02:50:37;;;;;;;36.20;17.77;;;-1.70;54.60;;;;;;5115692;28;20040;-78
2022/03/20 02:53:11;;;;;;;36.35;19.15;;;-1.80;54.70;;;;;;5115548;28;20062;-78
2022/03/20 02:55:39;;;;;;;36.20;18.52;;;-1.80;54.80;;;;;;5097165;28;20032;-78
2022/03/20 02:58:07;;;;;;;34.22;18.42;;;-1.90;55.20;;;;;;5115325;28;20461;-79
2022/03/20 03:00:34;;;;;;;33.88;20.35;;;-1.90;55.30;;;;;;5097233;28;20024;-78
2022/03/20 03:03:02;;;;;;;38.85;18.30;;;-1.90;55.30;;;;;;5115402;28;20031;-78
2022/03/20 03:05:29;;;;;;;31.27;18.02;;;-1.90;55.30;;;;;;5115444;28;20027;-79
2022/03/20 03:11:01;;;;;;;39.50;19.77;;;-1.90;55.10;;;;;;5115388;28;20507;-79
2022/03/20 03:13:37;;;;;;;35.70;18.55;;;-1.90;55.00;;;;;;5096972;28;20030;-77
2022/03/20 03:16:04;;;;;;;30.65;16.90;;;-1.90;55.00;;;;;;5115253;28;20495;-78
2022/03/20 03:18:30;;;;;;;31.10;16.30;;;-1.90;55.00;;;;;;5096536;28;20054;-78
2022/03/20 03:20:56;;;;;;;30.75;16.35;;;-1.90;54.90;;;;;;5096901;28;20491;-78
2022/03/20 03:23:24;;;;;;;36.05;19.50;;;-2.00;54.70;;;;;;5115116;28;20023;-78
2022/03/20 03:25:51;;;;;;;36.30;18.27;;;-2.00;54.80;;;;;;5115023;28;20028;-77
2022/03/20 03:28:16;;;;;;;36.05;19.83;;;-2.00;54.90;;;;;;5096447;28;20088;-78
2022/03/20 03:30:45;;;;;;;38.47;18.77;;;-2.10;55.10;;;;;;5114931;28;20420;-78
2022/03/20 03:33:12;;;;;;;34.75;18.65;;;-2.10;55.20;;;;;;5114710;28;20202;-79
2022/03/20 03:35:42;;;;;;;37.25;19.83;;;-2.10;55.30;;;;;;5114735;28;20024;-78
2022/03/20 03:38:19;;;;;;;40.58;18.77;;;-2.10;55.40;;;;;;5095892;28;20023;-78
2022/03/20 03:40:46;;;;;;;32.25;18.73;;;-2.10;55.60;;;;;;5096446;28;20506;-78
2022/03/20 03:43:17;;;;;;;32.45;18.85;;;-2.20;55.50;;;;;;5096367;28;20429;-77
2022/03/20 03:45:44;;;;;;;30.70;18.90;;;-2.20;55.70;;;;;;5114668;28;20055;-77
2022/03/20 03:48:11;;;;;;;38.83;20.77;;;-2.30;56.10;;;;;;5114350;28;20021;-77
2022/03/20 03:50:38;;;;;;;38.45;18.13;;;-2.30;56.30;;;;;;5096306;28;20084;-77
2022/03/20 03:53:05;;;;;;;39.08;20.55;;;-2.30;56.50;;;;;;5096102;28;20022;-77
2022/03/20 03:55:31;;;;;;;34.22;18.55;;;-2.30;56.70;;;;;;5096101;28;20030;-77
2022/03/20 03:57:58;;;;;;;32.88;16.98;;;-2.40;56.70;;;;;;5114252;28;20023;-77
2022/03/20 04:00:24;;;;;;;39.58;20.52;;;-2.40;57.00;;;;;;5096003;28;20473;-77
2022/03/20 04:02:50;;;;;;;35.80;18.10;;;-2.40;57.10;;;;;;5095849;28;20016;-79
2022/03/20 04:05:17;;;;;;;32.03;19.45;;;-2.50;57.20;;;;;;5095981;28;20031;-77
2022/03/20 04:07:47;;;;;;;39.67;18.98;;;-2.50;57.30;;;;;;5114144;28;20023;-78
2022/03/20 04:10:14;;;;;;;33.78;19.30;;;-2.50;57.40;;;;;;5113905;28;20134;-77
2022/03/20 04:12:40;;;;;;;34.10;15.80;;;-2.60;57.50;;;;;;5095987;28;20038;-77
2022/03/20 04:15:07;;;;;;;34.95;19.27;;;-2.50;57.70;;;;;;5095776;28;20019;-77
2022/03/20 04:17:33;;;;;;;35.20;20.67;;;-2.50;57.70;;;;;;5113966;28;20023;-77
2022/03/20 04:20:00;;;;;;;37.60;19.80;;;-2.60;57.60;;;;;;5113818;28;20068;-77
2022/03/20 04:22:27;;;;;;;33.92;18.17;;;-2.50;57.80;;;;;;5095866;28;20051;-77
2022/03/20 04:24:53;;;;;;;43.38;19.85;;;-2.60;57.90;;;;;;5113968;28;20015;-77
2022/03/20 04:27:19;;;;;;;33.83;18.98;;;-2.60;57.90;;;;;;5113831;28;20015;-77
2022/03/20 04:29:45;;;;;;;38.77;19.97;;;-2.60;57.90;;;;;;5095314;28;20034;-77
2022/03/20 04:32:11;;;;;;;38.38;18.67;;;-2.60;58.10;;;;;;5113819;28;20500;-77
2022/03/20 04:34:38;;;;;;;33.15;18.08;;;-2.60;58.30;;;;;;5113901;28;20052;-77
2022/03/20 04:37:05;;;;;;;38.85;19.40;;;-2.70;58.30;;;;;;5095161;28;20019;-77
2022/03/20 04:39:34;;;;;;;41.00;19.88;;;-2.70;58.30;;;;;;5095261;28;20069;-77
2022/03/20 04:42:00;;;;;;;33.90;19.20;;;-2.60;58.30;;;;;;5095251;28;20026;-77
2022/03/20 04:44:26;;;;;;;40.07;19.97;;;-2.70;58.40;;;;;;5095404;28;20406;-77
2022/03/20 04:46:53;;;;;;;33.37;18.40;;;-2.70;58.50;;;;;;5095302;28;20015;-77
2022/03/20 05:00:18;;;;;;;45.13;21.13;;;-2.70;58.70;;;;;;5113559;28;20096;-77
2022/03/20 05:02:44;;;;;;;35.33;18.58;;;-2.70;58.80;;;;;;5095318;28;20023;-77
2022/03/20 05:05:09;;;;;;;39.33;20.27;;;-2.70;58.80;;;;;;5095060;28;20019;-77
2022/03/20 05:07:35;;;;;;;37.70;20.60;;;-2.70;58.80;;;;;;5113335;28;20072;-76
2022/03/20 05:15:31;;;;;;;41.57;20.17;;;-2.60;58.60;;;;;;5113724;28;20031;-77
2022/03/20 05:17:57;;;;;;;40.53;21.38;;;-2.60;58.60;;;;;;5094951;28;20388;-77
2022/03/20 05:20:23;;;;;;;42.10;21.27;;;-2.60;58.60;;;;;;5113112;28;20031;-77
2022/03/20 05:22:49;;;;;;;41.00;21.30;;;-2.60;58.60;;;;;;5094971;28;20438;-77
2022/03/20 05:25:17;;;;;;;39.23;21.10;;;-2.50;58.60;;;;;;5094969;28;20381;-78
2022/03/20 05:27:42;;;;;;;42.80;21.30;;;-2.50;58.50;;;;;;5113117;28;20047;-77
2022/03/20 05:30:09;;;;;;;41.33;20.00;;;-2.40;58.30;;;;;;5094706;28;20114;-77
2022/03/20 05:32:35;;;;;;;44.20;21.27;;;-2.40;58.10;;;;;;5113005;28;20027;-77
2022/03/20 05:35:05;;;;;;;42.92;21.65;;;-2.30;58.00;;;;;;5113363;28;20027;-77
2022/03/20 05:37:31;;;;;;;38.58;21.30;;;-2.20;57.80;;;;;;5094804;28;20019;-77
2022/03/20 05:39:57;;;;;;;38.60;20.55;;;-2.20;57.70;;;;;;5094471;28;20374;-78
2022/03/20 05:42:23;;;;;;;39.53;22.40;;;-2.20;57.60;;;;;;5094847;28;20028;-77
2022/03/20 05:44:50;;;;;;;40.25;22.17;;;-2.10;57.70;;;;;;5113104;28;20022;-78
2022/03/20 05:47:15;;;;;;;37.03;22.20;;;-2.00;57.40;;;;;;5094787;28;20077;-77
2022/03/20 05:49:41;;;;;;;45.42;21.38;;;-2.00;57.30;;;;;;5094339;28;20035;-78
2022/03/20 05:52:07;;;;;;;37.20;22.17;;;-1.90;57.30;;;;;;5094563;28;20081;-78
2022/03/20 05:54:33;;;;;;;42.28;22.77;;;-1.80;56.90;;;;;;5094784;28;20526;-78
2022/03/20 05:59:43;;;;;;;50.03;22.90;;;-1.70;56.70;;;;;;5113208;28;20098;-78
2022/03/20 06:02:09;;;;;;;40.05;20.55;;;-1.50;56.50;;;;;;5112774;28;20477;-78
2022/03/20 06:04:35;;;;;;;40.80;21.52;;;-1.40;56.40;;;;;;5097053;28;20484;-78
2022/03/20 06:07:01;;;;;;;38.30;20.27;;;-1.40;56.10;;;;;;5098316;28;20445;-78
2022/03/20 06:09:27;;;;;;;41.63;20.88;;;-1.30;56.10;;;;;;5116448;28;20036;-78
2022/03/20 06:11:53;;;;;;;37.08;20.38;;;-1.20;55.80;;;;;;5116073;28;20034;-78
2022/03/20 06:14:19;;;;;;;45.00;20.90;;;-1.10;55.60;;;;;;5097960;28;20043;-78
2022/03/20 06:16:48;;;;;;;43.40;20.63;;;-1.00;55.20;;;;;;5116424;28;20465;-78
2022/03/20 06:19:15;;;;;;;43.60;22.20;;;-0.90;55.20;;;;;;5097976;28;20012;-77
2022/03/20 06:21:44;;;;;;;29.35;18.58;;;-0.80;54.80;;;;;;5115814;28;20465;-78
2022/03/20 06:24:10;;;;;;;39.55;21.75;;;-0.70;54.50;;;;;;5116264;28;20176;-78
2022/03/20 06:26:36;;;;;;;35.10;18.20;;;-0.60;54.30;;;;;;5097903;28;20102;-78
2022/03/20 06:29:06;;;;;;;40.60;21.52;;;-0.60;54.10;;;;;;5116018;28;20020;-78
2022/03/20 06:31:34;;;;;;;35.75;21.08;;;-0.40;53.70;;;;;;5097545;28;20469;-78
2022/03/20 06:34:00;;;;;;;44.33;20.38;;;-0.30;53.60;;;;;;5115979;28;20040;-78
2022/03/20 06:36:27;;;;;;;41.38;20.98;;;-0.30;53.30;;;;;;5115985;28;20023;-78
2022/03/20 06:38:53;;;;;;;38.67;20.92;;;-0.10;53.10;;;;;;5097504;28;20511;-78
2022/03/20 06:41:19;;;;;;;39.92;21.25;;;0.00;52.80;;;;;;5115699;28;20027;-78
2022/03/20 06:43:45;;;;;;;35.75;21.20;;;0.10;52.70;;;;;;5097586;28;20023;-78
2022/03/20 06:46:11;;;;;;;38.47;21.13;;;0.30;52.40;;;;;;5097473;28;20124;-77
2022/03/20 06:48:37;;;;;;;39.88;21.45;;;0.40;51.70;;;;;;5097586;28;20492;-78
2022/03/20 06:51:06;;;;;;;36.13;20.98;;;0.50;51.40;;;;;;5097073;28;20488;-78
2022/03/20 06:53:32;;;;;;;37.83;19.55;;;0.60;51.30;;;;;;5115649;28;20027;-78
2022/03/20 06:55:58;;;;;;;44.03;20.77;;;0.80;51.10;;;;;;5097296;28;20468;-78
2022/03/20 06:58:24;;;;;;;38.25;19.85;;;0.90;50.70;;;;;;5097343;28;20027;-78
2022/03/20 07:00:50;;;;;;;36.35;20.70;;;1.00;50.60;;;;;;5096989;28;20469;-78
2022/03/20 07:03:16;;;;;;;32.05;18.23;;;1.10;50.20;;;;;;5097291;28;20079;-77
2022/03/20 07:05:43;;;;;;;37.03;20.67;;;1.10;50.00;;;;;;5097083;28;20400;-78
2022/03/20 07:08:09;;;;;;;37.17;20.17;;;1.30;49.80;;;;;;5115451;28;20053;-78
2022/03/20 07:10:36;;;;;;;42.05;20.00;;;1.30;49.60;;;;;;5115381;28;20036;-78
2022/03/20 07:15:49;;;;;;;31.38;19.15;;;1.40;49.10;;;;;;5115115;28;20043;-78
2022/03/20 07:18:17;;;;;;;31.23;17.40;;;1.50;49.00;;;;;;5097068;28;20019;-78
2022/03/20 07:20:45;;;;;;;37.03;18.95;;;1.60;48.60;;;;;;5115122;28;20027;-78
2022/03/20 07:23:11;;;;;;;34.95;17.98;;;1.70;48.50;;;;;;5114851;28;20027;-77
2022/03/20 07:31:07;;;;;;;31.02;18.15;;;2.00;47.40;;;;;;5114902;28;20512;-77
2022/03/20 07:33:33;;;;;;;28.88;16.83;;;2.20;47.10;;;;;;5114475;28;20043;-76
2022/03/20 07:36:00;;;;;;;26.95;15.93;;;2.30;46.80;;;;;;5114846;28;20032;-76
2022/03/20 07:38:27;;;;;;;34.03;19.02;;;2.40;46.40;;;;;;5096747;28;20435;-76
2022/03/20 07:40:53;;;;;;;33.85;17.52;;;2.50;46.10;;;;;;5114695;28;20020;-76
2022/03/20 07:43:19;;;;;;;24.85;15.82;;;2.50;45.90;;;;;;5096081;28;20115;-76
2022/03/20 07:45:45;;;;;;;33.50;17.95;;;2.60;45.50;;;;;;5114417;28;20470;-77
2022/03/20 07:48:10;;;;;;;29.30;15.05;;;2.80;45.60;;;;;;5114336;28;20031;-76
2022/03/20 07:50:36;;;;;;;28.58;15.40;;;2.70;45.10;;;;;;5096097;28;20035;-76
2022/03/20 07:53:02;;;;;;;29.40;16.90;;;2.90;45.00;;;;;;5095342;28;20027;-77
2022/03/20 07:55:28;;;;;;;28.05;15.45;;;3.00;44.70;;;;;;5096193;28;20008;-75
2022/03/20 07:57:54;;;;;;;30.90;17.98;;;3.20;44.60;;;;;;5114526;28;20024;-76
2022/03/20 08:00:21;;;;;;;31.45;16.30;;;3.30;44.40;;;;;;5095983;28;20118;-77
2022/03/20 08:02:48;;;;;;;25.63;16.17;;;3.50;43.90;;;;;;5095769;28;20026;-76
2022/03/20 08:05:13;;;;;;;29.67;16.00;;;3.70;43.90;;;;;;5095801;28;20148;-77
2022/03/20 08:07:39;;;;;;;28.50;15.40;;;3.80;43.60;;;;;;5095502;28;20102;-76
2022/03/20 08:10:06;;;;;;;26.92;14.60;;;3.90;42.80;;;;;;5095753;28;20028;-76
2022/03/20 08:12:32;;;;;;;24.77;14.98;;;3.90;41.50;;;;;;5095501;28;20054;-75
2022/03/20 08:14:58;;;;;;;25.55;14.23;;;4.10;41.40;;;;;;5095760;28;20470;-76
2022/03/20 08:17:24;;;;;;;28.77;16.55;;;4.20;40.90;;;;;;5095515;28;20080;-76
2022/03/20 08:19:50;;;;;;;25.60;13.88;;;4.30;40.70;;;;;;5095698;28;20411;-76
2022/03/20 08:22:15;;;;;;;24.48;13.90;;;4.40;40.40;;;;;;5113641;28;20055;-75
2022/03/20 08:24:44;;;;;;;25.00;16.23;;;4.40;39.90;;;;;;5095225;28;20023;-77
2022/03/20 08:27:10;;;;;;;27.83;16.45;;;4.50;40.70;;;;;;5112631;28;20020;-76
2022/03/20 08:29:36;;;;;;;26.52;15.05;;;4.70;39.90;;;;;;5113586;28;20043;-76
2022/03/20 08:32:02;;;;;;;25.08;13.55;;;4.70;39.50;;;;;;5095677;28;20469;-76
2022/03/20 08:34:27;;;;;;;24.30;13.57;;;4.80;39.30;;;;;;5113837;28;20484;-76
2022/03/20 08:36:54;;;;;;;23.80;13.65;;;4.90;39.00;;;;;;5113671;28;20023;-76
2022/03/20 08:39:19;;;;;;;21.02;12.82;;;4.90;38.70;;;;;;5095565;28;20366;-77
2022/03/20 08:41:47;;;;;;;21.20;13.48;;;4.90;38.40;;;;;;5095396;28;20194;-76
2022/03/20 08:44:13;;;;;;;24.98;12.57;;;5.00;38.30;;;;;;5095278;28;20019;-76
2022/03/20 08:46:39;;;;;;;22.52;12.93;;;5.10;38.10;;;;;;5095450;28;20156;-76
2022/03/20 08:49:07;;;;;;;23.92;13.25;;;5.20;38.10;;;;;;5095359;28;20485;-77
2022/03/20 08:51:34;;;;;;;21.70;12.50;;;5.30;37.90;;;;;;5113324;28;20012;-76
2022/03/20 08:54:01;;;;;;;23.48;13.50;;;5.40;37.70;;;;;;5095052;28;20032;-76
2022/03/20 08:56:27;;;;;;;34.05;13.50;;;5.50;37.80;;;;;;5113565;28;20024;-76
2022/03/20 08:58:53;;;;;;;25.73;13.52;;;5.50;37.60;;;;;;5095263;28;20030;-77
2022/03/20 09:01:19;;;;;;;21.63;13.63;;;5.60;37.60;;;;;;5113553;28;20107;-76
2022/03/20 09:03:45;;;;;;;25.67;14.60;;;5.50;37.60;;;;;;5094860;28;20077;-78
2022/03/20 09:06:11;;;;;;;21.08;13.73;;;5.70;37.50;;;;;;5095138;28;20504;-77
2022/03/20 09:08:37;;;;;;;27.35;14.82;;;5.70;37.60;;;;;;5113516;28;20019;-78
2022/03/20 09:11:03;;;;;;;23.10;14.27;;;5.80;37.60;;;;;;5095045;28;20496;-78
2022/03/20 09:13:28;;;;;;;25.27;15.20;;;5.80;37.50;;;;;;5094840;28;20050;-78
2022/03/20 09:19:04;;;;;;;24.75;14.90;;;6.00;37.40;;;;;;5090969;28;20502;-77
2022/03/20 09:21:32;;;;;;;25.88;14.43;;;6.20;37.40;;;;;;5073751;28;20036;-77
2022/03/20 09:23:58;;;;;;;29.30;15.80;;;6.30;37.50;;;;;;5084814;28;20443;-77
2022/03/20 09:26:24;;;;;;;24.70;15.60;;;6.40;37.50;;;;;;5113240;28;20028;-76
2022/03/20 09:28:49;;;;;;;22.80;14.63;;;6.50;37.40;;;;;;5113289;28;20078;-77
2022/03/20 09:31:15;;;;;;;27.02;16.17;;;6.60;37.30;;;;;;5094921;28;20072;-78
2022/03/20 09:33:43;;;;;;;24.08;15.15;;;6.60;37.20;;;;;;5112790;28;20489;-76
2022/03/20 09:36:10;;;;;;;26.27;15.55;;;6.70;37.30;;;;;;5094760;28;20396;-78
2022/03/20 09:38:36;;;;;;;22.75;14.35;;;6.80;37.00;;;;;;5115910;28;20023;-77
2022/03/20 09:41:09;;;;;;;25.20;15.73;;;6.70;36.50;;;;;;5098779;28;20030;-76
2022/03/20 09:43:41;;;;;;;23.95;13.73;;;6.50;36.40;;;;;;5116925;28;20027;-75
2022/03/20 09:46:07;;;;;;;;;;;6.50;36.60;;;;;;5101306;28;20019;-76
2022/03/20 09:48:34;;;;;;;24.13;15.18;;;6.60;36.60;;;;;;5116067;28;19999;-75
2022/03/20 09:51:02;;;;;;;23.80;14.00;;;6.70;36.40;;;;;;5116113;28;20496;-76
2022/03/20 09:53:28;;;;;;;25.67;13.38;;;6.70;36.20;;;;;;5108887;28;20015;-75
2022/03/20 09:55:55;;;;;;;19.80;10.85;;;6.60;36.30;;;;;;5113305;28;20046;-77
2022/03/20 09:58:26;;;;;;;22.15;12.98;;;6.80;35.50;;;;;;5115506;28;20057;-76
2022/03/20 10:00:53;;;;;;;25.58;13.23;;;6.60;35.20;;;;;;5116555;28;20491;-76
2022/03/20 10:03:21;;;;;;;18.33;12.02;;;6.70;35.50;;;;;;5116574;28;20427;-75
2022/03/20 10:06:06;;;;;;;19.73;11.38;;;6.80;35.70;;;;;;5114898;28;20031;-78
2022/03/20 10:08:32;;;;;;;19.50;11.38;;;6.80;35.30;;;;;;5115156;28;20051;-78
2022/03/20 10:11:16;;;;;;;17.58;11.55;;;6.90;35.30;;;;;;5114954;28;20047;-78
2022/03/20 10:14:29;;;;;;;21.90;12.02;;;6.90;35.30;;;;;;5115087;28;20020;-76
2022/03/20 10:17:07;;;;;;;24.30;13.07;;;7.00;35.10;;;;;;5113474;28;20130;-76
2022/03/20 10:19:34;;;;;;;18.25;13.13;;;7.10;35.10;;;;;;5114978;28;20076;-76
2022/03/20 10:22:03;;;;;;;22.05;14.15;;;7.10;35.20;;;;;;5115230;28;20023;-75
2022/03/20 10:24:31;;;;;;;23.77;14.82;;;7.10;35.40;;;;;;5115971;28;20480;-75
2022/03/20 10:27:00;;;;;;;19.63;12.32;;;7.40;35.60;;;;;;5114838;28;20098;-80
2022/03/20 10:29:30;;;;;;;23.33;12.60;;;7.50;35.20;;;;;;5116124;28;20035;-76
2022/03/20 10:31:58;;;;;;;20.85;12.05;;;7.50;34.70;;;;;;5102190;28;20030;-78
2022/03/20 10:34:24;;;;;;;16.42;11.15;;;7.50;34.40;;;;;;5097209;28;20058;-76
2022/03/20 10:36:51;;;;;;;15.32;10.93;;;7.70;34.50;;;;;;5115939;28;20016;-78
2022/03/20 10:39:19;;;;;;;18.95;11.57;;;7.80;33.90;;;;;;5097712;28;20089;-78
2022/03/20 10:41:47;;;;;;;21.55;11.93;;;7.70;33.50;;;;;;5097721;28;20020;-78
2022/03/20 10:44:15;;;;;;;17.10;10.90;;;7.70;33.40;;;;;;5115645;28;20028;-75
2022/03/20 10:46:43;;;;;;;16.85;10.40;;;7.90;33.30;;;;;;5097105;28;20426;-76
2022/03/20 10:49:11;;;;;;;18.75;11.02;;;7.90;32.70;;;;;;5114827;28;20023;-77
2022/03/20 10:51:40;;;;;;;15.32;9.98;;;7.90;32.80;;;;;;5115653;28;20027;-79
2022/03/20 10:54:20;;;;;;;17.35;11.27;;;7.90;32.70;;;;;;5098297;27;20022;-79
2022/03/20 10:56:57;;;;;;;17.83;9.98;;;7.90;32.80;;;;;;5127909;27;20484;-79
2022/03/20 10:59:24;;;;;;;18.67;10.57;;;7.90;32.90;;;;;;5134230;27;20054;-79
2022/03/20 11:01:50;;;;;;;15.05;10.35;;;8.00;32.80;;;;;;5119869;27;20069;-79
2022/03/20 11:04:18;;;;;;;17.20;10.55;;;8.00;32.70;;;;;;5096776;28;20023;-76
2022/03/20 11:06:47;;;;;;;16.75;10.85;;;8.10;32.80;;;;;;5115184;28;20381;-75
2022/03/20 11:09:13;;;;;;;15.15;10.23;;;8.10;32.90;;;;;;5115157;28;20020;-75
2022/03/20 11:11:47;;;;;;;16.52;10.75;;;8.10;32.60;;;;;;5115107;28;20044;-80
2022/03/20 11:14:19;;;;;;;18.08;10.73;;;8.20;32.60;;;;;;5115307;28;20024;-75
2022/03/20 11:16:56;;;;;;;18.00;11.17;;;8.30;32.00;;;;;;5096747;28;20072;-79
2022/03/20 11:19:29;;;;;;;15.65;9.70;;;8.20;32.40;;;;;;5097042;28;20032;-75
2022/03/20 11:21:55;;;;;;;;;;;8.30;32.60;;;;;;5115402;28;20059;-80
2022/03/20 11:24:21;;;;;;;16.35;10.43;;;8.30;33.00;;;;;;5114857;28;19942;-80
2022/03/20 11:26:50;;;;;;;15.70;10.38;;;8.30;32.40;;;;;;5113985;28;20548;-77
2022/03/20 11:29:19;;;;;;;21.08;13.07;;;8.20;31.90;;;;;;5113936;28;20444;-78
2022/03/20 11:31:45;;;;;;;17.15;11.25;;;8.30;32.80;;;;;;5095524;28;20489;-75
2022/03/20 11:34:12;;;;;;;18.63;11.52;;;8.30;32.90;;;;;;5113378;28;20127;-75
2022/03/20 11:37:02;;;;;;;17.13;11.40;;;8.30;32.60;;;;;;5112705;28;20019;-76
2022/03/20 11:39:28;;;;;;;16.85;10.25;;;8.30;32.20;;;;;;5094414;28;20074;-75
2022/03/20 11:42:19;;;;;;;15.93;10.68;;;8.40;31.90;;;;;;5095532;28;20084;-76
2022/03/20 11:45:04;;;;;;;19.08;11.88;;;8.50;32.00;;;;;;5096086;28;20118;-80
2022/03/20 11:47:31;;;;;;;18.80;10.80;;;8.50;32.30;;;;;;5096071;28;20028;-81
2022/03/20 11:50:20;;;;;;;19.23;11.45;;;8.50;32.40;;;;;;5096029;28;20032;-81
2022/03/20 11:52:49;;;;;;;20.27;10.90;;;8.60;32.30;;;;;;5096088;28;20028;-81
2022/03/20 11:55:31;;;;;;;16.58;10.40;;;8.40;31.80;;;;;;5095938;28;20534;-81
2022/03/20 11:58:01;;;;;;;16.13;11.00;;;8.50;32.30;;;;;;5095879;28;20035;-81
2022/03/20 12:00:30;;;;;;;17.30;11.82;;;8.50;32.10;;;;;;5114100;28;20269;-80
2022/03/20 12:03:13;;;;;;;20.35;12.00;;;8.60;32.40;;;;;;5114175;28;20020;-81
2022/03/20 12:05:41;;;;;;;15.25;9.90;;;8.60;32.10;;;;;;5095705;28;20130;-80
2022/03/20 12:09:02;;;;;;;19.02;10.25;;;8.70;31.80;;;;;;5113913;28;20026;-81
2022/03/20 12:11:49;;;;;;;16.77;10.25;;;8.60;31.80;;;;;;5031456;28;20037;-81
2022/03/20 12:14:36;;;;;;;14.73;9.98;;;8.90;32.00;;;;;;5090744;28;20119;-78
2022/03/20 12:17:02;;;;;;;14.38;9.27;;;8.90;31.10;;;;;;5113860;28;20053;-79
2022/03/20 12:19:42;;;;;;;12.70;9.20;;;9.00;30.40;;;;;;5113857;28;20019;-76
2022/03/20 12:22:15;;;;;;;15.88;9.27;;;9.10;30.00;;;;;;5113950;28;20481;-79
2022/03/20 12:24:54;;;;;;;13.13;8.45;;;8.80;30.00;;;;;;5113922;28;20026;-79
2022/03/20 12:27:23;;;;;;;12.23;8.50;;;8.90;30.30;;;;;;5113783;28;20023;-74
2022/03/20 12:30:10;;;;;;;10.77;7.55;;;9.10;30.30;;;;;;5095647;28;20122;-75
2022/03/20 12:32:47;;;;;;;12.68;8.65;;;9.10;29.90;;;;;;5113839;28;20385;-75
2022/03/20 12:35:24;;;;;;;13.38;7.97;;;9.20;29.40;;;;;;5113952;28;20090;-79
2022/03/20 12:37:52;;;;;;;13.80;8.45;;;9.10;28.80;;;;;;5095378;28;20038;-79
2022/03/20 12:40:22;;;;;;;12.18;7.60;;;9.00;29.40;;;;;;5113658;28;20034;-78
2022/03/20 12:43:10;;;;;;;11.65;8.38;;;9.00;29.40;;;;;;5113747;28;20160;-79
2022/03/20 12:45:55;;;;;;;11.90;6.95;;;9.20;29.30;;;;;;5095418;28;20148;-74
2022/03/20 12:48:21;;;;;;;11.25;7.15;;;9.20;28.70;;;;;;5095090;28;20060;-79
2022/03/20 12:50:49;;;;;;;11.85;7.28;;;9.10;28.30;;;;;;5112341;28;20114;-74
2022/03/20 12:53:16;;;;;;;10.82;7.40;;;9.20;28.10;;;;;;5093452;28;20063;-74
2022/03/20 12:55:49;;;;;;;12.20;7.28;;;9.30;28.50;;;;;;5093551;28;20091;-75
2022/03/20 12:58:18;;;;;;;13.07;8.48;;;9.30;28.40;;;;;;5075247;28;20036;-75
2022/03/20 13:00:44;;;;;;;12.32;7.43;;;9.40;28.90;;;;;;5074575;28;20022;-78
2022/03/20 13:03:10;;;;;;;11.90;7.57;;;9.40;28.60;;;;;;5093405;28;20035;-75
2022/03/20 13:05:39;;;;;;;10.27;7.80;;;9.40;28.00;;;;;;5075470;28;20389;-78
2022/03/20 13:08:09;;;;;;;10.95;7.43;;;9.30;27.70;;;;;;5093237;28;20030;-75
2022/03/20 13:10:40;;;;;;;12.77;8.10;;;9.30;28.00;;;;;;5094225;28;20024;-79
2022/03/20 13:13:07;;;;;;;14.00;7.03;;;9.30;28.10;;;;;;5096862;28;20496;-79
2022/03/20 13:15:38;;;;;;;11.25;8.02;;;9.40;28.00;;;;;;5099323;28;20473;-75